Dickensonville, Virginia
Current Conditions -  °F | °C
As of 5:15 PM on Saturday 25 Oct 2014 (Local Time) from KLNP Reporting Station
Overcast Overcast  
Wind Chill: 63°   Ceiling: 2900
Heat Index: 63°   Visibility: 10mi
Dew Point: 43°   Wind: 9mph
Humidity: 48%   Direction: 240°WSW
Pressure: 30.03"   Gusts: NA
Location:  36.8434°N, 82.293°W
Report Text: KLNP 252115Z AUTO 24008KT 10SM OVC029 17/06 A3003 RMK AO2
Loading
Personal Weather Stations






























Interactive Weather Map
Tropical Storm Tracking
New forecast layout! Learn more

10-Day Weather Forecast

Advertisements
Track Severe Weather on mobile